Time;durP1;ratioP1;P1;durP2;ratioP2;P2;SDS_P1;SDS_P2;PMS_P1;PMS_P2;Temp;Humidity;BMP_temperature;BMP_pressure;BME280_temperature;BME280_humidity;BME280_pressure;Samples;Min_cycle;Max_cycle;Signal;HPM_P1;HPM_P2
2022/06/19 00:02:04;;;;;;;14.13;3.30;;;23.30;69.20;;;;;;4972379;28;20023;-66
2022/06/19 00:04:33;;;;;;;15.68;3.70;;;23.30;69.50;;;;;;4966407;28;20553;-67
2022/06/19 00:07:00;;;;;;;14.98;3.33;;;23.10;69.70;;;;;;4955740;28;20023;-67
2022/06/19 00:09:26;;;;;;;13.27;3.30;;;23.10;69.60;;;;;;4979270;28;20026;-68
2022/06/19 00:11:55;;;;;;;15.93;3.90;;;23.10;69.80;;;;;;4974723;28;20052;-68
2022/06/19 00:14:23;;;;;;;17.55;4.50;;;23.00;69.70;;;;;;4972933;28;20035;-68
2022/06/19 00:16:49;;;;;;;12.50;4.05;;;23.10;69.40;;;;;;4964408;28;20015;-68
2022/06/19 00:19:22;;;;;;;16.88;4.20;;;23.10;69.50;;;;;;4975202;28;20031;-66
2022/06/19 00:21:58;;;;;;;23.88;4.20;;;23.00;69.60;;;;;;4981343;28;20029;-67
2022/06/19 00:24:25;;;;;;;19.33;4.53;;;23.00;69.50;;;;;;4978247;28;20309;-68
2022/06/19 00:26:51;;;;;;;20.40;4.20;;;23.10;69.00;;;;;;4972451;28;20049;-68
2022/06/19 00:29:18;;;;;;;14.98;3.50;;;23.10;69.00;;;;;;4975580;28;20474;-68
2022/06/19 00:31:44;;;;;;;18.85;4.28;;;23.10;68.50;;;;;;4976231;28;20066;-67
2022/06/19 00:34:10;;;;;;;23.60;4.35;;;23.10;68.30;;;;;;4972299;28;20054;-68
2022/06/19 00:36:35;;;;;;;18.83;4.10;;;23.20;67.60;;;;;;4976128;28;20085;-68
2022/06/19 00:39:01;;;;;;;17.13;3.97;;;23.30;67.80;;;;;;4973089;28;20131;-67
2022/06/19 00:41:33;;;;;;;19.45;3.85;;;23.30;67.70;;;;;;4972694;28;20416;-68
2022/06/19 00:44:04;;;;;;;16.05;4.22;;;23.20;67.70;;;;;;4975064;28;20035;-67
2022/06/19 00:46:45;;;;;;;19.98;4.40;;;23.20;68.00;;;;;;4975543;28;20041;-67
2022/06/19 00:49:34;;;;;;;17.45;3.58;;;23.00;67.80;;;;;;4976225;28;20027;-67
2022/06/19 00:52:22;;;;;;;15.75;3.78;;;22.90;67.90;;;;;;4979051;28;20030;-68
2022/06/19 00:54:54;;;;;;;18.77;3.55;;;23.00;67.40;;;;;;4978594;28;20030;-68
2022/06/19 00:57:20;;;;;;;21.95;4.15;;;23.10;66.40;;;;;;4982233;28;20618;-66
2022/06/19 01:00:01;;;;;;;17.65;3.83;;;23.20;66.70;;;;;;4981105;28;20029;-67
2022/06/19 01:02:27;;;;;;;19.17;4.53;;;23.10;66.90;;;;;;4980689;28;20335;-68
2022/06/19 01:04:55;;;;;;;18.88;4.13;;;23.10;66.70;;;;;;4974325;28;20039;-68
2022/06/19 01:07:26;;;;;;;12.90;3.50;;;23.00;66.70;;;;;;4975180;28;20031;-67
2022/06/19 01:09:52;;;;;;;21.58;3.65;;;23.10;66.90;;;;;;4974292;28;20042;-68
2022/06/19 01:12:20;;;;;;;19.75;4.63;;;23.10;66.70;;;;;;4977103;28;20031;-67
2022/06/19 01:14:47;;;;;;;18.83;4.18;;;23.20;66.50;;;;;;4974859;28;20022;-67
2022/06/19 01:17:16;;;;;;;15.13;3.60;;;23.30;66.30;;;;;;4976200;28;20328;-68
2022/06/19 01:19:43;;;;;;;19.45;3.85;;;23.30;66.30;;;;;;4968713;28;20055;-68
2022/06/19 01:22:27;;;;;;;18.27;3.80;;;23.30;66.20;;;;;;4974900;28;20023;-67
2022/06/19 01:25:16;;;;;;;14.55;3.38;;;23.30;66.60;;;;;;4973243;28;20027;-67
2022/06/19 01:30:35;;;;;;;21.10;4.82;;;22.90;67.40;;;;;;4977856;28;20450;-68
2022/06/19 01:33:04;;;;;;;20.98;3.97;;;22.90;67.60;;;;;;4975084;28;20094;-68
2022/06/19 01:35:33;;;;;;;19.48;4.25;;;22.90;67.70;;;;;;4971501;28;20355;-67
2022/06/19 01:38:03;;;;;;;16.00;4.22;;;22.90;68.00;;;;;;4976857;28;20118;-69
2022/06/19 01:40:31;;;;;;;18.15;4.50;;;22.90;67.60;;;;;;4973655;28;20039;-68
2022/06/19 01:42:57;;;;;;;14.48;3.70;;;22.90;67.80;;;;;;4974275;28;20846;-68
2022/06/19 01:45:23;;;;;;;14.95;3.20;;;22.80;68.20;;;;;;4978793;28;20035;-67
2022/06/19 01:47:50;;;;;;;15.73;3.72;;;22.70;68.50;;;;;;4980973;28;20046;-68
2022/06/19 01:50:27;;;;;;;21.58;4.72;;;22.40;69.40;;;;;;4974702;28;20125;-68
2022/06/19 01:53:00;;;;;;;23.83;4.32;;;22.20;70.10;;;;;;4956772;28;20039;-68
2022/06/19 01:55:28;;;;;;;25.25;4.50;;;22.00;71.30;;;;;;4967315;28;20438;-67
2022/06/19 01:57:57;;;;;;;15.13;4.03;;;21.80;71.90;;;;;;4973013;28;20027;-68
2022/06/19 02:00:27;;;;;;;17.92;3.95;;;21.70;71.90;;;;;;4970059;28;20464;-68
2022/06/19 02:03:03;;;;;;;17.63;4.32;;;21.70;71.90;;;;;;4973305;28;20035;-68
2022/06/19 02:05:32;;;;;;;10.68;3.65;;;21.60;72.40;;;;;;4965802;28;20035;-69
2022/06/19 02:07:58;;;;;;;18.85;4.35;;;21.60;72.70;;;;;;4955179;28;20031;-68
2022/06/19 02:10:24;;;;;;;14.25;3.40;;;21.60;72.40;;;;;;4969672;28;20032;-68
2022/06/19 02:12:50;;;;;;;23.65;4.43;;;21.60;72.20;;;;;;4956509;28;20439;-67
2022/06/19 02:15:16;;;;;;;18.15;4.10;;;21.50;72.70;;;;;;4970381;28;20030;-68
2022/06/19 02:17:48;;;;;;;20.17;4.97;;;21.50;73.10;;;;;;4968227;28;20105;-67
2022/06/19 02:20:13;;;;;;;14.55;3.88;;;21.50;73.20;;;;;;4959338;28;20402;-68
2022/06/19 02:22:39;;;;;;;18.27;4.43;;;21.30;74.00;;;;;;4959238;28;20216;-68
2022/06/19 02:25:06;;;;;;;16.15;3.92;;;21.10;75.60;;;;;;4973476;28;20084;-67
2022/06/19 02:27:34;;;;;;;19.75;3.95;;;20.90;75.50;;;;;;4959541;28;20087;-67
2022/06/19 02:30:01;;;;;;;15.52;3.85;;;20.60;78.20;;;;;;4971099;28;20139;-68
2022/06/19 02:32:36;;;;;;;20.02;4.22;;;20.50;78.40;;;;;;4958139;28;20015;-68
2022/06/19 02:35:03;;;;;;;22.27;4.60;;;20.30;79.00;;;;;;4969899;28;20045;-68
2022/06/19 02:37:35;;;;;;;19.90;4.63;;;20.40;77.60;;;;;;4974758;28;20419;-68
2022/06/19 02:40:20;;;;;;;17.10;4.00;;;20.60;76.30;;;;;;4959971;28;20043;-67
2022/06/19 02:42:48;;;;;;;19.50;3.92;;;20.90;75.90;;;;;;4969330;28;20053;-67
2022/06/19 02:45:17;;;;;;;13.90;3.97;;;21.10;75.40;;;;;;4974409;28;20125;-67
2022/06/19 02:47:44;;;;;;;16.08;4.07;;;21.10;75.80;;;;;;4961153;28;20057;-68
2022/06/19 02:50:18;;;;;;;15.02;3.53;;;20.90;76.70;;;;;;4971243;28;20062;-67
2022/06/19 02:52:43;;;;;;;18.00;3.85;;;20.90;76.40;;;;;;4976198;28;20471;-67
2022/06/19 02:55:10;;;;;;;20.60;4.03;;;20.90;76.30;;;;;;4973500;28;20118;-66
2022/06/19 02:57:36;;;;;;;20.55;4.30;;;20.90;76.60;;;;;;4974058;28;20329;-66
2022/06/19 03:00:05;;;;;;;14.38;4.07;;;20.90;76.60;;;;;;4972936;28;20023;-66
2022/06/19 03:02:31;;;;;;;21.35;4.68;;;20.90;77.30;;;;;;4969926;28;20039;-66
2022/06/19 03:05:00;;;;;;;16.60;4.07;;;20.80;77.40;;;;;;4970291;28;20039;-68
2022/06/19 03:07:26;;;;;;;18.90;4.20;;;20.60;78.00;;;;;;4960196;28;20128;-68
2022/06/19 03:09:53;;;;;;;17.13;4.72;;;20.60;78.30;;;;;;4971245;28;20035;-68
2022/06/19 03:12:19;;;;;;;14.30;3.95;;;20.60;78.60;;;;;;4970998;28;20031;-68
2022/06/19 03:14:45;;;;;;;14.48;3.88;;;20.40;78.80;;;;;;4973756;28;20437;-68
2022/06/19 03:17:16;;;;;;;19.08;3.92;;;20.40;79.00;;;;;;4967894;28;20027;-68
2022/06/19 03:19:42;;;;;;;21.70;3.85;;;20.40;79.40;;;;;;4955104;28;20050;-68
2022/06/19 03:22:09;;;;;;;16.60;3.80;;;20.40;79.50;;;;;;4964350;28;20037;-68
2022/06/19 03:24:35;;;;;;;20.05;4.53;;;20.30;79.70;;;;;;4974674;28;20443;-68
2022/06/19 03:27:01;;;;;;;19.88;4.25;;;20.20;80.20;;;;;;4974389;28;20066;-69
2022/06/19 03:29:26;;;;;;;23.17;4.32;;;20.20;79.90;;;;;;4966073;28;20427;-68
2022/06/19 03:31:52;;;;;;;16.15;3.67;;;20.30;79.70;;;;;;4960524;28;20070;-68
2022/06/19 03:34:18;;;;;;;16.98;3.90;;;20.40;79.60;;;;;;4967486;28;20541;-68
2022/06/19 03:36:43;;;;;;;19.70;4.13;;;20.40;79.70;;;;;;4965876;28;20031;-68
2022/06/19 03:39:09;;;;;;;14.88;3.45;;;20.50;79.50;;;;;;4960912;28;20101;-69
2022/06/19 03:41:36;;;;;;;19.17;4.47;;;20.50;80.00;;;;;;5010738;28;20377;-68
2022/06/19 03:44:02;;;;;;;22.67;4.40;;;20.40;80.10;;;;;;5019525;28;20776;-68
2022/06/19 03:46:27;;;;;;;15.40;4.20;;;20.50;79.80;;;;;;4963852;28;20047;-68
2022/06/19 03:48:56;;;;;;;17.75;3.55;;;20.50;79.40;;;;;;4964567;28;20031;-68
2022/06/19 03:51:23;;;;;;;24.90;4.80;;;20.70;78.70;;;;;;4972134;28;20026;-69
2022/06/19 03:53:50;;;;;;;17.73;4.22;;;21.00;78.10;;;;;;4972876;28;20054;-68
2022/06/19 03:56:19;;;;;;;25.73;4.47;;;21.10;77.60;;;;;;4965412;28;20030;-69
2022/06/19 03:58:48;;;;;;;16.67;4.07;;;21.10;77.60;;;;;;4959072;28;20462;-68
2022/06/19 04:01:23;;;;;;;16.05;4.20;;;21.00;78.90;;;;;;4965993;28;20031;-68
2022/06/19 04:03:50;;;;;;;16.20;4.18;;;20.80;79.20;;;;;;4965715;28;20340;-68
2022/06/19 04:06:18;;;;;;;22.45;4.68;;;20.70;79.90;;;;;;4962815;28;20634;-67
2022/06/19 04:08:47;;;;;;;14.90;3.80;;;20.80;79.10;;;;;;4968402;28;20416;-68
2022/06/19 04:11:14;;;;;;;17.27;3.50;;;21.10;78.70;;;;;;4973914;28;20110;-68
2022/06/19 04:13:40;;;;;;;17.85;3.78;;;21.10;79.80;;;;;;4972343;28;20119;-68
2022/06/19 04:16:08;;;;;;;17.85;3.70;;;20.90;79.80;;;;;;4972949;28;20376;-67
2022/06/19 04:18:34;;;;;;;16.83;4.00;;;20.80;80.30;;;;;;4971370;28;20030;-68
2022/06/19 04:21:00;;;;;;;16.95;3.85;;;20.90;80.10;;;;;;4974216;28;20045;-67
2022/06/19 04:23:28;;;;;;;16.35;4.28;;;20.90;80.50;;;;;;4972495;28;20112;-68
2022/06/19 04:25:54;;;;;;;19.58;3.78;;;20.90;81.40;;;;;;4976068;28;20044;-68
2022/06/19 04:28:24;;;;;;;18.85;4.07;;;20.80;81.50;;;;;;4974669;28;20030;-68
2022/06/19 04:30:50;;;;;;;18.88;4.47;;;20.80;81.20;;;;;;4973739;28;20157;-67
2022/06/19 04:33:18;;;;;;;26.88;4.15;;;20.90;81.30;;;;;;4894595;28;20031;-68
2022/06/19 04:35:44;;;;;;;22.17;4.35;;;21.00;81.40;;;;;;4981033;28;20034;-68
2022/06/19 04:38:10;;;;;;;19.98;5.35;;;20.90;82.40;;;;;;4973554;28;20035;-67
2022/06/19 04:40:37;;;;;;;21.40;4.90;;;20.80;82.80;;;;;;4972048;28;20053;-67
2022/06/19 04:43:04;;;;;;;22.73;4.45;;;20.90;82.80;;;;;;4960878;28;20082;-68
2022/06/19 04:45:30;;;;;;;19.60;4.47;;;20.90;82.60;;;;;;4967864;28;20026;-68
2022/06/19 04:47:58;;;;;;;16.10;4.28;;;20.90;82.60;;;;;;4959656;28;20066;-68
2022/06/19 04:50:25;;;;;;;14.68;3.45;;;21.00;82.90;;;;;;4973818;28;20020;-68
2022/06/19 04:52:51;;;;;;;15.98;4.40;;;20.90;83.80;;;;;;4978942;28;20059;-68
2022/06/19 04:55:17;;;;;;;17.33;3.90;;;21.00;83.40;;;;;;4978042;28;20604;-68
2022/06/19 04:57:43;;;;;;;17.80;4.35;;;21.10;83.60;;;;;;4976364;28;20450;-67
2022/06/19 05:00:13;;;;;;;25.60;4.10;;;21.20;83.40;;;;;;4976754;28;20339;-68
2022/06/19 05:02:39;;;;;;;17.15;4.03;;;21.20;83.70;;;;;;4959945;28;20042;-68
2022/06/19 05:05:06;;;;;;;15.43;4.25;;;21.30;83.60;;;;;;4979560;28;20097;-67
2022/06/19 05:07:32;;;;;;;15.15;4.40;;;21.40;83.80;;;;;;4978333;28;20334;-68
2022/06/19 05:09:58;;;;;;;22.23;5.25;;;21.50;83.30;;;;;;4977015;28;20026;-68
2022/06/19 05:12:24;;;;;;;14.43;4.10;;;21.70;83.60;;;;;;4970349;28;20326;-68
2022/06/19 05:14:49;;;;;;;22.63;4.65;;;21.80;83.40;;;;;;4973543;28;20110;-68
2022/06/19 05:17:15;;;;;;;16.65;3.92;;;21.90;82.60;;;;;;4960347;28;20089;-67
2022/06/19 05:19:42;;;;;;;21.13;5.72;;;22.10;82.70;;;;;;4966394;28;20451;-67
2022/06/19 05:22:08;;;;;;;23.27;5.53;;;22.50;81.10;;;;;;4979838;28;20080;-67
2022/06/19 05:24:33;;;;;;;18.90;4.55;;;22.90;81.90;;;;;;4964896;28;20019;-68
2022/06/19 05:26:59;;;;;;;25.83;5.55;;;23.10;80.60;;;;;;4971099;28;20033;-68
2022/06/19 05:29:25;;;;;;;19.70;4.85;;;23.40;79.30;;;;;;4974286;28;20019;-68
2022/06/19 05:31:51;;;;;;;16.13;4.20;;;23.40;80.90;;;;;;4964864;28;20110;-68
2022/06/19 05:34:16;;;;;;;10.60;4.55;;;23.60;78.70;;;;;;4972739;28;20037;-68
2022/06/19 05:36:42;;;;;;;15.88;4.75;;;23.70;80.60;;;;;;4978435;28;20042;-68
2022/06/19 05:39:11;;;;;;;19.38;5.07;;;23.70;80.00;;;;;;4962335;28;20118;-68
2022/06/19 05:41:40;;;;;;;20.83;5.30;;;23.80;79.00;;;;;;4968686;28;20423;-68
2022/06/19 05:44:06;;;;;;;14.30;5.18;;;24.00;80.10;;;;;;4958715;28;20057;-68
2022/06/19 05:46:32;;;;;;;21.73;5.43;;;24.20;79.30;;;;;;4959953;28;20040;-68
2022/06/19 05:48:57;;;;;;;16.85;5.85;;;24.20;79.90;;;;;;4963220;28;20173;-67
2022/06/19 05:51:24;;;;;;;13.65;4.45;;;24.30;80.20;;;;;;4973740;28;20031;-67
2022/06/19 05:53:55;;;;;;;16.42;5.60;;;24.30;81.20;;;;;;4973669;28;20095;-67
2022/06/19 05:56:22;;;;;;;16.83;5.65;;;24.50;77.80;;;;;;5069310;28;20028;-67
2022/06/19 05:58:48;;;;;;;14.10;6.55;;;24.80;78.40;;;;;;4977474;28;20106;-68
2022/06/19 06:01:16;;;;;;;15.55;6.97;;;25.20;75.50;;;;;;4965187;28;20024;-68
2022/06/19 06:03:42;;;;;;;18.40;6.35;;;25.80;73.20;;;;;;4964600;28;20109;-68
2022/06/19 06:06:13;;;;;;;18.25;6.97;;;26.30;72.60;;;;;;4973969;28;20469;-68
2022/06/19 06:08:39;;;;;;;10.10;5.78;;;26.70;71.10;;;;;;4973920;28;20117;-68
2022/06/19 06:11:05;;;;;;;16.50;7.32;;;26.90;71.50;;;;;;4970056;28;20118;-67
2022/06/19 06:13:31;;;;;;;16.45;6.30;;;27.20;69.40;;;;;;4959208;28;20398;-68
2022/06/19 06:15:58;;;;;;;16.92;6.78;;;27.50;70.00;;;;;;4977501;28;20031;-68
2022/06/19 06:18:24;;;;;;;16.80;6.63;;;27.60;67.50;;;;;;4974638;28;20474;-69
2022/06/19 06:20:57;;;;;;;18.02;6.63;;;27.80;67.50;;;;;;5012928;28;20118;-68
2022/06/19 06:23:25;;;;;;;25.42;6.88;;;28.00;69.00;;;;;;4968897;28;20031;-68
2022/06/19 06:26:21;;;;;;;14.00;6.65;;;28.20;69.40;;;;;;4957066;28;20031;-68
2022/06/19 06:28:49;;;;;;;13.70;6.40;;;28.30;65.50;;;;;;4991310;28;20198;-68
2022/06/19 06:31:19;;;;;;;16.38;6.95;;;28.40;66.30;;;;;;4959305;28;20031;-68
2022/06/19 06:33:47;;;;;;;13.23;7.00;;;28.50;66.10;;;;;;4956305;28;20046;-67
2022/06/19 06:36:14;;;;;;;15.85;7.47;;;28.70;68.60;;;;;;4954997;28;20035;-67
2022/06/19 06:38:40;;;;;;;17.98;7.68;;;28.80;64.40;;;;;;4967604;28;20043;-67
2022/06/19 06:41:09;;;;;;;15.45;7.13;;;28.80;65.10;;;;;;4975484;28;20034;-67
2022/06/19 06:43:38;;;;;;;17.70;7.10;;;28.90;64.40;;;;;;4967784;28;20038;-68
2022/06/19 06:46:10;;;;;;;16.42;6.90;;;28.90;64.70;;;;;;4967584;28;20034;-69
2022/06/19 06:48:36;;;;;;;14.25;7.25;;;29.00;64.30;;;;;;4963003;28;20023;-68
2022/06/19 06:51:09;;;;;;;14.52;6.35;;;29.00;63.50;;;;;;4971764;28;20035;-68
2022/06/19 06:53:35;;;;;;;16.75;7.55;;;29.10;64.30;;;;;;4975173;28;20042;-68
2022/06/19 06:56:00;;;;;;;18.27;6.10;;;29.10;64.70;;;;;;4973342;28;20027;-68
2022/06/19 06:58:26;;;;;;;16.30;7.05;;;29.10;63.50;;;;;;4975829;28;20407;-68
2022/06/19 07:00:52;;;;;;;16.70;6.78;;;29.10;63.70;;;;;;4966651;28;20023;-68
2022/06/19 07:03:17;;;;;;;17.98;7.40;;;29.20;64.20;;;;;;4964881;28;20030;-68
2022/06/19 07:05:43;;;;;;;19.45;7.07;;;29.20;64.70;;;;;;4970350;28;20644;-68
2022/06/19 07:08:08;;;;;;;22.63;7.60;;;29.10;63.90;;;;;;4957245;28;20038;-68
2022/06/19 07:10:34;;;;;;;18.80;7.00;;;29.10;64.20;;;;;;4976952;28;20104;-68
2022/06/19 07:13:00;;;;;;;15.07;6.80;;;29.20;62.70;;;;;;4974166;28;20313;-69
2022/06/19 07:15:26;;;;;;;19.25;7.00;;;29.40;63.00;;;;;;4959919;28;20031;-68
2022/06/19 07:17:52;;;;;;;16.00;7.10;;;29.40;63.80;;;;;;4980970;28;20023;-68
2022/06/19 07:20:19;;;;;;;19.70;6.72;;;29.00;65.10;;;;;;4969182;28;20035;-68
2022/06/19 07:22:44;;;;;;;15.85;6.97;;;28.80;64.70;;;;;;4965512;28;20034;-68
2022/06/19 07:25:19;;;;;;;11.98;6.88;;;29.40;64.20;;;;;;4969977;28;20027;-69
2022/06/19 07:27:45;;;;;;;16.48;6.30;;;30.20;63.30;;;;;;4967209;28;20027;-69
2022/06/19 07:30:17;;;;;;;17.95;7.15;;;31.00;62.20;;;;;;4968948;28;20030;-69
2022/06/19 07:32:42;;;;;;;18.90;6.28;;;31.70;59.00;;;;;;4966324;28;20031;-68
2022/06/19 07:35:12;;;;;;;18.27;6.97;;;31.80;60.00;;;;;;4974498;28;20027;-68
2022/06/19 07:37:38;;;;;;;16.10;7.05;;;32.30;59.10;;;;;;4967607;28;20347;-68
2022/06/19 07:40:04;;;;;;;17.60;6.07;;;32.70;57.60;;;;;;4997755;28;20047;-68
2022/06/19 07:42:30;;;;;;;13.75;6.82;;;32.80;57.70;;;;;;4984389;28;20084;-68
2022/06/19 07:44:56;;;;;;;19.23;7.47;;;32.30;56.70;;;;;;4973994;28;20031;-68
2022/06/19 07:50:09;;;;;;;14.80;5.95;;;32.70;57.10;;;;;;4970865;28;20037;-68
2022/06/19 07:52:38;;;;;;;16.42;6.30;;;33.00;57.10;;;;;;4972652;28;20034;-68
2022/06/19 07:55:07;;;;;;;15.68;6.07;;;33.20;56.70;;;;;;4965547;28;20015;-68
2022/06/19 07:57:33;;;;;;;16.83;6.00;;;33.30;56.20;;;;;;4968262;28;20181;-68
2022/06/19 07:59:59;;;;;;;16.45;6.28;;;33.70;55.30;;;;;;4959450;28;20114;-68
2022/06/19 08:02:24;;;;;;;16.83;5.88;;;33.70;55.20;;;;;;4974291;28;20277;-67
2022/06/19 08:04:51;;;;;;;16.42;6.53;;;33.80;55.70;;;;;;4972506;28;20031;-68
2022/06/19 08:07:18;;;;;;;16.40;6.22;;;33.70;55.50;;;;;;4967154;28;20027;-68
2022/06/19 08:09:44;;;;;;;16.33;6.40;;;33.60;55.60;;;;;;4966020;28;20316;-68
2022/06/19 08:12:10;;;;;;;12.55;6.07;;;33.80;55.10;;;;;;4971909;28;20061;-68
2022/06/19 08:14:37;;;;;;;16.80;6.70;;;34.00;54.80;;;;;;4958345;28;20038;-68
2022/06/19 08:17:03;;;;;;;13.10;6.22;;;34.20;54.20;;;;;;4973384;28;20031;-68
2022/06/19 08:19:28;;;;;;;17.92;6.35;;;34.10;54.80;;;;;;4970231;28;20057;-68
2022/06/19 08:21:54;;;;;;;18.10;7.15;;;34.10;55.20;;;;;;4962292;28;20436;-68
2022/06/19 08:24:19;;;;;;;14.93;5.88;;;34.60;53.90;;;;;;4971313;28;20038;-68
2022/06/19 08:26:47;;;;;;;13.25;5.45;;;34.50;54.20;;;;;;4972773;28;20036;-68
2022/06/19 08:29:12;;;;;;;14.10;6.85;;;34.80;53.80;;;;;;5036223;28;20132;-68
2022/06/19 08:31:38;;;;;;;17.40;5.88;;;34.90;53.10;;;;;;4970132;28;20114;-68
2022/06/19 08:34:04;;;;;;;16.77;5.80;;;35.10;53.80;;;;;;4963171;28;20320;-68
2022/06/19 08:36:32;;;;;;;16.75;6.47;;;35.50;52.80;;;;;;4971294;28;20102;-68
2022/06/19 08:39:03;;;;;;;15.70;6.43;;;35.20;52.10;;;;;;4965547;28;20035;-67
2022/06/19 08:42:03;;;;;;;14.05;5.90;;;35.00;52.70;;;;;;4965720;28;20454;-68
2022/06/19 08:44:34;;;;;;;15.88;6.15;;;34.90;53.50;;;;;;4970828;28;20501;-68
2022/06/19 08:47:21;;;;;;;11.10;5.57;;;34.40;55.80;;;;;;4968076;28;20046;-68
2022/06/19 08:50:13;;;;;;;13.90;5.22;;;34.70;56.20;;;;;;4960592;28;21580;-68
2022/06/19 08:52:59;;;;;;;18.67;6.13;;;35.10;55.80;;;;;;4988983;28;20046;-67
2022/06/19 08:56:08;;;;;;;17.42;6.10;;;35.20;55.30;;;;;;4969219;28;20034;-67
2022/06/19 08:58:52;;;;;;;18.77;6.03;;;35.30;55.40;;;;;;4966697;28;20027;-67
2022/06/19 09:01:32;;;;;;;12.48;5.35;;;35.30;55.40;;;;;;4960871;28;20080;-68
2022/06/19 09:07:27;;;;;;;12.75;5.60;;;36.00;54.40;;;;;;4971798;28;20422;-68
2022/06/19 09:10:07;;;;;;;18.27;6.32;;;36.10;54.90;;;;;;4971133;28;20324;-69
2022/06/19 09:12:42;;;;;;;17.95;7.05;;;36.00;54.00;;;;;;4974313;28;20034;-68
2022/06/19 09:15:12;;;;;;;19.45;7.35;;;35.70;53.70;;;;;;4970496;28;20054;-65
2022/06/19 09:18:01;;;;;;;18.08;6.78;;;35.40;54.40;;;;;;4975539;28;20033;-66
2022/06/19 09:20:42;;;;;;;13.95;6.80;;;35.30;53.80;;;;;;5016294;28;20038;-65
2022/06/19 09:23:18;;;;;;;16.05;5.97;;;35.00;54.10;;;;;;4971950;28;20030;-67
2022/06/19 09:25:55;;;;;;;17.40;6.38;;;34.80;54.80;;;;;;4976071;28;20117;-68
2022/06/19 09:28:54;;;;;;;20.92;7.20;;;35.30;54.40;;;;;;4974604;28;20039;-67
2022/06/19 09:31:34;;;;;;;18.25;6.40;;;35.20;54.00;;;;;;4972470;28;20439;-66
2022/06/19 09:34:19;;;;;;;14.48;6.88;;;35.20;54.10;;;;;;4987648;28;20127;-68
2022/06/19 09:37:14;;;;;;;12.93;5.72;;;35.20;54.00;;;;;;4974550;28;20031;-67
2022/06/19 09:40:02;;;;;;;13.70;6.60;;;35.10;53.30;;;;;;4962353;28;20039;-67
2022/06/19 09:42:43;;;;;;;17.08;6.63;;;35.00;53.70;;;;;;4984738;28;20035;-67
2022/06/19 09:45:32;;;;;;;18.48;7.05;;;35.50;54.70;;;;;;4966499;28;20446;-67
2022/06/19 09:48:20;;;;;;;17.25;7.22;;;35.70;52.40;;;;;;4969507;28;20038;-66
2022/06/19 09:50:48;;;;;;;20.98;7.40;;;36.00;52.20;;;;;;4971791;28;20089;-68
2022/06/19 09:53:28;;;;;;;14.73;6.35;;;36.00;51.90;;;;;;4972137;28;20039;-67
2022/06/19 09:56:04;;;;;;;15.90;7.10;;;35.80;52.50;;;;;;4975509;28;20038;-67
2022/06/19 09:58:39;;;;;;;12.65;6.32;;;36.20;52.20;;;;;;4969248;28;20106;-67
2022/06/19 10:01:06;;;;;;;15.80;6.68;;;36.30;52.30;;;;;;4965552;28;20366;-67
2022/06/19 10:03:38;;;;;;;15.38;7.32;;;36.50;52.00;;;;;;4967684;28;20049;-67
2022/06/19 10:06:15;;;;;;;19.58;6.50;;;36.50;51.70;;;;;;4963900;28;20625;-68
2022/06/19 10:08:55;;;;;;;19.00;7.22;;;36.50;51.90;;;;;;4964733;28;20031;-67
2022/06/19 10:11:34;;;;;;;17.50;7.38;;;36.70;51.40;;;;;;4970900;28;20031;-67
2022/06/19 10:14:19;;;;;;;15.48;6.97;;;36.40;52.00;;;;;;4972213;28;20027;-67
2022/06/19 10:16:50;;;;;;;13.95;6.68;;;36.00;52.30;;;;;;4952793;28;20317;-66
2022/06/19 10:19:23;;;;;;;13.77;6.60;;;36.10;52.50;;;;;;4966596;28;20026;-67
2022/06/19 10:22:15;;;;;;;13.23;6.50;;;36.20;52.20;;;;;;4969090;28;20034;-68
2022/06/19 10:24:59;;;;;;;14.10;6.75;;;36.50;52.00;;;;;;4973833;28;20039;-67
2022/06/19 10:27:44;;;;;;;22.23;8.18;;;36.60;51.50;;;;;;4972543;28;20034;-67
2022/06/19 10:30:22;;;;;;;16.80;7.35;;;36.40;51.50;;;;;;4964315;28;20117;-67
2022/06/19 10:33:12;;;;;;;16.05;7.65;;;35.80;52.90;;;;;;4972133;28;20034;-68
2022/06/19 10:36:04;;;;;;;17.25;6.78;;;36.00;52.20;;;;;;4965442;28;20027;-66
2022/06/19 10:38:52;;;;;;;13.63;6.90;;;36.20;52.20;;;;;;4975842;28;20062;-68
2022/06/19 10:44:28;;;;;;;19.55;7.35;;;35.20;51.90;;;;;;4979220;28;20367;-66
2022/06/19 10:47:10;;;;;;;20.58;7.63;;;35.50;52.50;;;;;;4976211;28;20421;-66
2022/06/19 10:50:00;;;;;;;21.50;8.00;;;35.90;50.90;;;;;;4972696;28;20031;-66
2022/06/19 10:52:56;;;;;;;19.05;7.70;;;36.00;51.20;;;;;;4969039;28;20023;-66
2022/06/19 10:55:37;;;;;;;18.42;7.93;;;36.00;50.60;;;;;;4977565;28;20091;-65
2022/06/19 10:58:13;;;;;;;14.93;7.90;;;35.70;50.90;;;;;;4984586;28;20054;-65
2022/06/19 11:00:39;;;;;;;15.15;7.50;;;35.50;51.70;;;;;;4968523;28;20030;-66
2022/06/19 11:06:08;;;;;;;15.60;7.97;;;35.60;50.20;;;;;;4974387;28;20045;-65
2022/06/19 11:08:35;;;;;;;17.88;7.88;;;35.60;51.00;;;;;;4972864;28;20359;-66
2022/06/19 11:11:02;;;;;;;18.67;8.25;;;35.80;50.20;;;;;;4971759;28;20066;-66
2022/06/19 11:13:56;;;;;;;16.63;7.80;;;35.80;49.70;;;;;;4974610;28;20066;-68
2022/06/19 11:16:23;;;;;;;20.33;7.97;;;36.00;49.80;;;;;;4969123;28;20023;-67
2022/06/19 11:18:50;;;;;;;16.98;7.72;;;36.00;49.40;;;;;;4965194;28;20101;-67
2022/06/19 11:21:20;;;;;;;18.92;7.70;;;35.90;49.20;;;;;;4972487;28;20359;-67
2022/06/19 11:23:54;;;;;;;16.00;8.00;;;36.00;48.80;;;;;;4974532;28;20051;-68
2022/06/19 11:26:27;;;;;;;16.92;7.35;;;35.70;49.60;;;;;;4969650;28;20111;-67
2022/06/19 11:29:00;;;;;;;18.67;8.30;;;35.70;49.80;;;;;;4960023;28;20030;-68
2022/06/19 11:31:36;;;;;;;18.90;8.40;;;36.00;48.90;;;;;;4972919;28;20037;-67
2022/06/19 11:37:37;;;;;;;18.70;7.53;;;36.10;48.60;;;;;;4968741;28;20064;-67
2022/06/19 11:40:05;;;;;;;25.02;7.93;;;36.10;48.50;;;;;;4970508;28;20126;-67
2022/06/19 11:42:50;;;;;;;14.75;7.38;;;36.00;47.00;;;;;;4974516;28;20023;-66
2022/06/19 11:45:16;;;;;;;17.75;7.18;;;35.40;48.30;;;;;;4970211;28;20098;-66
2022/06/19 11:47:59;;;;;;;17.50;7.65;;;35.40;47.90;;;;;;4974036;28;20507;-66
2022/06/19 11:50:34;;;;;;;;;;;35.70;48.30;;;;;;4961888;28;20102;-66
2022/06/19 11:53:14;;;;;;;17.80;6.65;;;35.80;47.00;;;;;;4955241;28;20013;-65
2022/06/19 11:55:51;;;;;;;16.27;7.20;;;35.80;47.00;;;;;;4971273;28;20027;-67
2022/06/19 11:58:22;;;;;;;21.63;7.32;;;35.70;47.00;;;;;;4968988;28;20401;-67
2022/06/19 12:01:01;;;;;;;19.45;6.65;;;35.70;47.00;;;;;;4975486;28;20026;-66
2022/06/19 12:03:55;;;;;;;19.50;6.47;;;35.80;46.00;;;;;;4969013;28;20277;-67
2022/06/19 12:06:51;;;;;;;14.52;5.90;;;34.90;46.00;;;;;;4972070;28;20031;-66
2022/06/19 12:09:38;;;;;;;17.83;5.63;;;34.30;45.80;;;;;;4973153;28;20116;-67
2022/06/19 12:12:06;;;;;;;17.38;6.15;;;34.60;46.60;;;;;;4973941;28;20112;-67
2022/06/19 12:14:50;;;;;;;17.48;6.03;;;35.00;46.10;;;;;;4955020;28;20036;-66
2022/06/19 12:17:27;;;;;;;18.55;6.03;;;35.20;45.30;;;;;;4997202;28;20025;-65
2022/06/19 12:20:05;;;;;;;17.00;6.80;;;34.70;44.90;;;;;;4990704;28;20025;-66
2022/06/19 12:22:49;;;;;;;18.08;5.63;;;34.90;45.40;;;;;;5011820;28;20088;-66
2022/06/19 12:25:33;;;;;;;26.13;6.38;;;34.90;45.40;;;;;;4954720;28;20027;-67
2022/06/19 12:28:31;;;;;;;18.60;5.97;;;35.20;44.80;;;;;;4972968;28;20460;-68
2022/06/19 12:31:11;;;;;;;16.48;5.70;;;35.20;46.00;;;;;;4967618;28;20121;-65
2022/06/19 12:34:03;;;;;;;16.48;6.38;;;35.30;44.90;;;;;;4958844;28;20436;-66
2022/06/19 12:36:34;;;;;;;18.27;6.40;;;35.40;44.20;;;;;;4952334;28;20023;-66
2022/06/19 12:39:01;;;;;;;19.33;6.50;;;35.30;44.10;;;;;;4967992;28;20057;-66
2022/06/19 12:41:44;;;;;;;21.25;5.50;;;35.20;44.20;;;;;;4972147;28;20351;-67
2022/06/19 12:44:39;;;;;;;16.63;5.90;;;35.40;44.20;;;;;;4968167;28;20031;-66
2022/06/19 12:47:32;;;;;;;23.65;5.88;;;35.70;43.80;;;;;;4970686;28;20061;-66
2022/06/19 12:50:27;;;;;;;14.10;5.57;;;35.40;43.50;;;;;;4964889;28;20034;-67
2022/06/19 12:52:59;;;;;;;14.40;5.78;;;35.40;44.10;;;;;;5030098;28;20042;-67
2022/06/19 12:55:51;;;;;;;18.20;6.60;;;35.40;44.20;;;;;;4959812;28;20440;-67
2022/06/19 12:58:50;;;;;;;19.85;5.90;;;35.60;44.20;;;;;;4957837;28;20149;-67
2022/06/19 13:01:40;;;;;;;15.48;5.60;;;36.00;43.40;;;;;;4957533;28;20028;-67
2022/06/19 13:04:12;;;;;;;14.02;5.00;;;36.00;42.70;;;;;;4957391;28;20038;-68
2022/06/19 13:06:56;;;;;;;15.05;5.90;;;36.10;44.00;;;;;;4957259;29;20042;-67
2022/06/19 13:09:30;;;;;;;17.58;5.53;;;36.10;42.80;;;;;;4957791;28;20031;-68
2022/06/19 13:12:40;;;;;;;17.17;5.65;;;36.50;42.10;;;;;;4957397;28;20077;-67
2022/06/19 13:15:19;;;;;;;19.13;5.80;;;36.60;41.60;;;;;;5036757;28;20525;-68
2022/06/19 13:17:53;;;;;;;14.43;5.53;;;36.60;42.30;;;;;;4979389;28;20039;-67
2022/06/19 13:20:48;;;;;;;21.50;6.38;;;36.00;42.90;;;;;;4974206;28;20431;-68
2022/06/19 13:23:21;;;;;;;19.83;6.25;;;36.20;42.30;;;;;;4976805;28;20031;-68